Terminal Aerodrome Forecast
Issued by NWS Shreveport, LA

Home | Current Version | Previous Version | Text Only | Print | Product List | Glossary On
Versions: 1 2 3 4 5 6 7 8 9 10 11 12 13 14 15 16 17 18 19 20 21 22 23 24 25 26 27 28 29
000
FTUS44 KSHV 172125 AAB
TAFSHV
TAF AMD
KSHV 172125Z 1721/1818 27004KT 4SM -RA BR OVC006
     FM180200 36004KT 5SM -DZ BR OVC010
     FM180500 04006KT 5SM BR BKN025 BKN035
     FM180700 05006KT 4SM BR OVC015
     FM181000 06006KT 5SM BR OVC009
     FM181500 10009KT 3SM BR OVC004=

USA.gov is the U.S. government's official web portal to all federal, state and local government web resources and services.